createdAt,value
2018-12-09T00:03:06.507Z,83442.23
2018-12-09T00:08:09.609Z,83444.84
2018-12-09T00:13:12.687Z,83444.51
2018-12-09T00:18:15.779Z,83453.95
2018-12-09T00:23:18.884Z,83448.36
2018-12-09T00:28:21.991Z,83442.95
2018-12-09T00:33:25.073Z,83422.60
2018-12-09T00:38:28.150Z,83402.45
2018-12-09T00:43:31.244Z,83385.71
2018-12-09T00:48:34.353Z,83388.15
2018-12-09T00:53:37.478Z,83387.22
2018-12-09T00:58:40.572Z,83400.59
2018-12-09T01:03:43.728Z,83406.39
2018-12-09T01:08:46.888Z,83415.16
2018-12-09T01:13:49.989Z,83415.33
2018-12-09T01:18:53.079Z,83401.47
2018-12-09T01:23:57.106Z,83424.03
2018-12-09T01:29:00.272Z,83425.57
2018-12-09T01:34:03.496Z,83432.78
2018-12-09T01:39:06.892Z,83430.04
2018-12-09T01:44:10.059Z,83426.24
2018-12-09T01:49:13.185Z,83431.94
2018-12-09T01:54:16.378Z,83424.37
2018-12-09T01:59:19.544Z,83411.69
2018-12-09T02:04:22.747Z,83398.19
2018-12-09T02:09:25.965Z,83385.54
2018-12-09T02:14:29.035Z,83382.57
2018-12-09T02:19:32.192Z,83371.17
2018-12-09T02:24:35.388Z,83359.87
2018-12-09T02:29:38.548Z,83356.80
2018-12-09T02:40:02.137Z,83357.79
2018-12-09T02:45:05.809Z,83336.89
2018-12-09T02:50:08.916Z,83334.93
2018-12-09T02:55:12.078Z,83326.45
2018-12-09T03:00:15.194Z,83339.55
2018-12-09T03:05:18.390Z,83358.23
2018-12-09T03:10:21.702Z,83371.70
2018-12-09T03:15:24.789Z,83378.30
2018-12-09T03:20:27.878Z,83382.17
2018-12-09T03:25:31.177Z,83380.40
2018-12-09T03:30:34.329Z,83387.48
2018-12-09T03:35:37.512Z,83389.55
2018-12-09T03:40:40.658Z,83385.71
2018-12-09T03:45:43.817Z,83387.64
2018-12-09T03:50:46.981Z,83391.87
2018-12-09T03:55:50.151Z,83385.87
2018-12-09T04:00:53.357Z,83385.75
2018-12-09T04:05:56.466Z,83379.09
2018-12-09T04:10:59.685Z,83366.86
2018-12-09T04:16:04.051Z,83360.46
2018-12-09T04:21:07.296Z,83340.48
2018-12-09T04:26:10.400Z,83329.24
2018-12-09T04:31:13.473Z,83325.95
2018-12-09T04:36:16.642Z,83330.65
2018-12-09T04:41:19.828Z,83324.52
2018-12-09T04:46:23.048Z,83307.94
2018-12-09T04:51:29.976Z,83287.41
2018-12-09T04:56:33.148Z,83287.97
2018-12-09T05:01:36.226Z,83311.67
2018-12-09T05:06:39.389Z,83334.55
2018-12-09T05:11:42.520Z,83343.75
2018-12-09T05:16:45.604Z,83355.48
2018-12-09T05:21:48.684Z,83367.16
2018-12-09T05:26:51.814Z,83363.72
2018-12-09T05:31:56.229Z,83362.73
2018-12-09T05:36:59.309Z,83365.41
2018-12-09T05:42:02.376Z,83357.05
2018-12-09T05:47:05.454Z,83358.33
2018-12-09T05:52:08.610Z,83336.19
2018-12-09T05:57:11.776Z,83320.15
2018-12-09T06:07:53.619Z,83287.08
2018-12-09T06:12:56.691Z,83282.37
2018-12-09T06:17:59.768Z,83283.08
2018-12-09T06:23:02.881Z,83280.42
2018-12-09T06:28:05.955Z,83286.41
2018-12-09T06:33:09.034Z,83298.11
2018-12-09T06:38:12.142Z,83301.14
2018-12-09T06:43:15.338Z,83317.14
2018-12-09T06:48:18.500Z,83322.05
2018-12-09T06:53:21.623Z,83326.62
2018-12-09T06:58:24.707Z,83328.09
2018-12-09T07:03:27.887Z,83331.75
2018-12-09T07:08:31.057Z,83336.19
2018-12-09T07:13:34.240Z,83340.98
2018-12-09T07:18:37.435Z,83343.05
2018-12-09T07:23:40.503Z,83347.20
2018-12-09T07:28:43.579Z,83352.73
2018-12-09T07:33:46.643Z,83364.50
2018-12-09T07:38:49.723Z,83358.62
2018-12-09T07:43:52.880Z,83359.41
2018-12-09T07:48:55.961Z,83358.73
2018-12-09T07:53:59.032Z,83363.29
2018-12-09T07:59:02.103Z,83365.73
2018-12-09T08:04:05.346Z,83357.77
2018-12-09T08:09:08.443Z,83367.20
2018-12-09T08:14:11.518Z,83371.20
2018-12-09T08:19:14.620Z,83378.17
2018-12-09T08:24:17.710Z,83383.98
2018-12-09T08:29:20.783Z,83386.84
2018-12-09T08:34:23.853Z,83382.41
2018-12-09T08:39:26.937Z,83378.30
2018-12-09T08:44:30.045Z,83377.80
2018-12-09T08:49:33.113Z,83383.70
2018-12-09T08:54:36.186Z,83385.00
2018-12-09T08:59:39.329Z,83387.44
2018-12-09T09:04:42.449Z,83393.91
2018-12-09T09:09:45.566Z,83390.47
2018-12-09T09:14:48.670Z,83390.73
2018-12-09T09:19:51.740Z,83388.93
2018-12-09T09:24:54.816Z,83386.51
2018-12-09T09:29:57.899Z,83376.39
2018-12-09T09:35:01.029Z,83366.99
2018-12-09T09:40:05.700Z,83356.82
2018-12-09T09:45:08.855Z,83364.72
2018-12-09T09:50:12.201Z,83365.66
2018-12-09T09:55:15.548Z,83366.79
2018-12-09T10:00:18.618Z,83377.13
2018-12-09T10:05:21.802Z,83383.56
2018-12-09T10:10:24.892Z,83389.77
2018-12-09T10:15:28.000Z,83380.20
2018-12-09T10:20:31.102Z,83373.57
2018-12-09T10:25:34.293Z,83378.63
2018-12-09T10:30:37.358Z,83381.77
2018-12-09T10:35:40.446Z,83373.57
2018-12-09T10:40:43.651Z,83379.27
2018-12-09T10:45:46.756Z,83380.16
2018-12-09T10:50:49.839Z,83364.69
2018-12-09T10:55:52.997Z,83358.56
2018-12-09T11:00:58.188Z,83320.15
2018-12-09T11:06:01.295Z,83291.98
2018-12-09T11:11:04.433Z,83270.44
2018-12-09T11:16:07.623Z,83258.02
2018-12-09T11:21:10.727Z,83230.16
2018-12-09T11:26:13.832Z,83214.39
2018-12-09T11:31:16.966Z,83196.03
2018-12-09T11:36:20.146Z,83205.70
2018-12-09T11:41:23.268Z,83216.93
2018-12-09T11:46:26.375Z,83223.72
2018-12-09T11:51:29.443Z,83226.58
2018-12-09T11:56:32.575Z,83227.75
2018-12-09T12:01:35.679Z,83221.56
2018-12-09T12:06:38.760Z,83214.83
2018-12-09T12:11:41.873Z,83218.61
2018-12-09T12:16:44.950Z,83209.89
2018-12-09T12:21:48.071Z,83210.86
2018-12-09T12:26:51.341Z,83211.66
2018-12-09T12:31:54.600Z,83240.05
2018-12-09T12:36:57.689Z,83211.06
2018-12-09T12:42:00.784Z,83211.50
2018-12-09T12:47:03.953Z,83212.63
2018-12-09T12:52:07.119Z,83244.30
2018-12-09T12:57:10.289Z,83245.27
2018-12-09T13:02:13.423Z,83253.39
2018-12-09T13:07:16.491Z,83264.18
2018-12-09T13:12:19.597Z,83283.08
2018-12-09T13:17:22.667Z,83290.92
2018-12-09T13:22:25.781Z,83304.62
2018-12-09T13:27:28.885Z,83329.31
2018-12-09T13:32:32.074Z,83329.15
2018-12-09T13:37:36.061Z,83318.98
2018-12-09T13:42:39.198Z,83292.48
2018-12-09T13:47:42.277Z,83194.91
2018-12-09T13:52:45.375Z,83147.31
2018-12-09T13:57:48.558Z,83125.63
2018-12-09T14:02:51.633Z,83140.75
2018-12-09T14:07:54.737Z,83137.02
2018-12-09T14:12:57.844Z,83150.28
2018-12-09T14:18:00.977Z,83153.70
2018-12-09T14:23:04.162Z,83158.43
2018-12-09T14:28:07.283Z,83161.55
2018-12-09T14:33:10.439Z,83163.44
2018-12-09T14:38:13.593Z,83167.23
2018-12-09T14:43:16.746Z,83175.53
2018-12-09T14:48:19.861Z,83183.02
2018-12-09T14:53:22.964Z,83182.77
2018-12-09T14:58:26.037Z,83190.05
2018-12-09T15:03:29.169Z,83193.84
2018-12-09T15:08:32.236Z,83195.91
2018-12-09T15:13:35.348Z,83199.53
2018-12-09T15:18:38.440Z,83201.09
2018-12-09T15:23:41.548Z,83202.98
2018-12-09T15:28:44.686Z,83199.63
2018-12-09T15:33:47.797Z,83206.44
2018-12-09T15:38:50.881Z,83213.09
2018-12-09T15:43:53.983Z,83210.73
2018-12-09T15:48:57.060Z,83210.30
2018-12-09T15:54:00.284Z,83206.34
2018-12-09T15:59:03.401Z,83208.03
2018-12-09T16:04:06.495Z,83210.10
2018-12-09T16:09:09.659Z,83205.67
2018-12-09T16:14:12.760Z,83203.14
2018-12-09T16:19:15.862Z,83212.63
2018-12-09T16:24:18.967Z,83217.25
2018-12-09T16:29:22.132Z,83215.97
2018-12-09T16:34:25.259Z,83213.56
2018-12-09T16:39:29.178Z,83213.47
2018-12-09T16:44:32.794Z,83197.75
2018-12-09T16:54:32.365Z,83193.55
2018-12-09T16:59:35.458Z,83207.14
2018-12-09T17:04:38.579Z,83212.37
2018-12-09T17:09:41.677Z,83223.41
2018-12-09T17:14:45.569Z,83227.13
2018-12-09T17:19:48.651Z,83228.95
2018-12-09T17:24:51.766Z,83238.39
2018-12-09T17:29:54.864Z,83237.93
2018-12-09T17:34:57.986Z,83233.20
2018-12-09T17:40:01.103Z,83229.96
2018-12-09T17:45:04.397Z,83222.80
2018-12-09T17:50:08.464Z,83221.38
2018-12-09T17:55:11.574Z,83215.77
2018-12-09T18:00:14.764Z,83214.27
2018-12-09T18:05:17.949Z,83211.73
2018-12-09T18:10:22.066Z,83212.41
2018-12-09T18:15:25.201Z,83208.31
2018-12-09T18:20:28.328Z,83203.77
2018-12-09T18:25:31.423Z,83199.73
2018-12-09T18:30:34.608Z,83196.61
2018-12-09T18:35:37.881Z,83199.48
2018-12-09T18:40:41.028Z,83189.45
2018-12-09T18:45:44.130Z,83169.63
2018-12-09T18:50:47.245Z,83145.12
2018-12-09T18:55:50.359Z,83132.52
2018-12-09T19:00:54.400Z,83138.96
2018-12-09T19:05:57.722Z,83141.32
2018-12-09T19:11:00.929Z,83141.25
2018-12-09T19:16:04.091Z,83138.26
2018-12-09T19:21:07.199Z,83136.48
2018-12-09T19:26:10.341Z,83135.89
2018-12-09T19:31:13.664Z,83134.14
2018-12-09T19:36:16.783Z,83128.33
2018-12-09T19:41:19.942Z,83123.07
2018-12-09T19:46:23.080Z,83110.86
2018-12-09T19:51:26.262Z,83107.55
2018-12-09T19:56:29.393Z,83113.22
2018-12-09T20:01:32.670Z,83115.81
2018-12-09T20:06:35.779Z,83116.52
2018-12-09T20:11:38.886Z,83106.98
2018-12-09T20:16:41.970Z,83104.39
2018-12-09T20:21:45.064Z,83098.20
2018-12-09T20:26:48.175Z,83095.87
2018-12-09T20:31:51.274Z,83086.61
2018-12-09T20:36:54.380Z,83085.14
2018-12-09T20:41:57.507Z,83083.48
2018-12-09T20:47:00.587Z,83084.64
2018-12-09T20:52:03.742Z,83091.30
2018-12-09T20:57:06.889Z,83086.34
2018-12-09T21:02:09.996Z,83079.85
2018-12-09T21:07:13.178Z,83063.78
2018-12-09T21:12:16.332Z,83051.63
2018-12-09T21:17:19.462Z,83048.80
2018-12-09T21:22:22.617Z,83051.63
2018-12-09T21:27:25.726Z,83060.02
2018-12-09T21:32:28.788Z,83066.15
2018-12-09T21:37:31.884Z,83073.02
2018-12-09T21:42:35.044Z,83072.72
2018-12-09T21:47:38.151Z,83069.86
2018-12-09T21:52:41.239Z,83071.09
2018-12-09T21:57:44.328Z,83064.98
2018-12-09T22:02:47.456Z,83065.50
2018-12-09T22:07:50.523Z,83067.04
2018-12-09T22:12:53.789Z,83059.47
2018-12-09T22:17:56.892Z,83064.28
2018-12-09T22:22:59.963Z,83060.64
2018-12-09T22:28:03.037Z,83060.71
2018-12-09T22:33:06.113Z,83058.11
2018-12-09T22:38:09.192Z,83053.45
2018-12-09T22:43:12.342Z,83054.48
2018-12-09T22:48:15.424Z,83050.27
2018-12-09T22:53:18.500Z,83052.39
2018-12-09T22:58:21.740Z,83050.22
2018-12-09T23:03:24.806Z,83050.06
2018-12-09T23:08:27.903Z,83050.22
2018-12-09T23:13:30.989Z,83049.92
2018-12-09T23:18:34.165Z,83047.22
2018-12-09T23:23:37.290Z,83053.53
2018-12-09T23:28:40.348Z,83058.28
2018-12-09T23:33:43.448Z,83049.92
2018-12-09T23:38:46.584Z,83019.01
2018-12-09T23:43:49.693Z,83016.24
2018-12-09T23:48:52.773Z,83020.97
2018-12-09T23:53:55.886Z,83016.34
2018-12-09T23:58:59.064Z,83016.24
